Time;durP1;ratioP1;P1;durP2;ratioP2;P2;SDS_P1;SDS_P2;PMS_P1;PMS_P2;Temp;Humidity;BMP_temperature;BMP_pressure;BME280_temperature;BME280_humidity;BME280_pressure;Samples;Min_cycle;Max_cycle;Signal;HPM_P1;HPM_P2
2022/04/05 00:01:26;;;;;;;7.60;5.90;;;7.40;79.00;;;;;;5028698;28;21460;-41
2022/04/05 00:03:52;;;;;;;10.53;6.50;;;7.40;79.60;;;;;;5028617;28;20949;-41
2022/04/05 00:06:19;;;;;;;7.17;5.93;;;7.30;80.00;;;;;;5027847;28;20964;-41
2022/04/05 00:08:46;;;;;;;7.07;6.37;;;7.30;80.20;;;;;;5027524;28;20455;-41
2022/04/05 00:11:13;;;;;;;7.67;6.90;;;7.30;79.80;;;;;;5026126;28;20464;-41
2022/04/05 00:13:40;;;;;;;11.70;6.50;;;7.30;79.80;;;;;;5027657;28;20463;-41
2022/04/05 00:16:06;;;;;;;7.30;5.80;;;7.30;79.50;;;;;;5008419;28;20827;-41
2022/04/05 00:18:33;;;;;;;7.30;5.97;;;7.30;79.10;;;;;;5027240;28;20469;-41
2022/04/05 00:21:00;;;;;;;6.80;5.70;;;7.30;79.80;;;;;;5028824;28;20484;-41
2022/04/05 00:23:27;;;;;;;10.20;6.47;;;7.30;80.00;;;;;;5027742;28;20456;-41
2022/04/05 00:25:53;;;;;;;7.00;6.30;;;7.30;80.50;;;;;;5027670;28;20468;-41
2022/04/05 00:28:20;;;;;;;7.30;6.63;;;7.20;80.40;;;;;;5026915;28;20807;-41
2022/04/05 00:30:47;;;;;;;6.53;5.80;;;7.20;80.30;;;;;;5028083;28;20503;-41
2022/04/05 00:33:14;;;;;;;6.47;5.67;;;7.20;80.30;;;;;;5027094;28;20527;-41
2022/04/05 00:35:41;;;;;;;6.10;5.50;;;7.20;79.80;;;;;;5008379;28;20455;-42
2022/04/05 00:38:08;;;;;;;7.60;5.47;;;7.20;80.00;;;;;;5026269;28;20460;-42
2022/04/05 00:40:37;;;;;;;6.23;5.63;;;7.20;80.40;;;;;;5026092;28;20519;-41
2022/04/05 00:43:05;;;;;;;6.97;5.87;;;7.20;80.20;;;;;;5027239;28;20463;-42
2022/04/05 00:45:34;;;;;;;6.00;5.40;;;7.20;80.10;;;;;;5006565;28;20970;-42
2022/04/05 00:48:02;;;;;;;6.20;5.60;;;7.20;80.00;;;;;;5026916;28;20556;-42
2022/04/05 00:50:34;;;;;;;7.43;6.63;;;7.20;80.20;;;;;;5027254;28;20547;-41
2022/04/05 00:53:03;;;;;;;8.57;6.27;;;7.20;80.40;;;;;;5027223;28;20460;-41
2022/04/05 00:55:32;;;;;;;7.30;5.20;;;7.20;80.70;;;;;;5027072;28;20571;-41
2022/04/05 00:58:02;;;;;;;6.77;6.10;;;7.20;80.50;;;;;;5021968;28;20479;-41
2022/04/05 01:00:29;;;;;;;6.73;6.13;;;7.20;80.80;;;;;;5027064;28;20492;-41
2022/04/05 01:02:57;;;;;;;6.30;5.60;;;7.20;80.80;;;;;;5028049;28;20452;-41
2022/04/05 01:05:26;;;;;;;7.00;6.30;;;7.20;80.80;;;;;;5025322;28;20449;-41
2022/04/05 01:07:56;;;;;;;7.10;6.50;;;7.20;80.90;;;;;;5014059;28;20975;-41
2022/04/05 01:10:24;;;;;;;7.07;6.37;;;7.20;81.00;;;;;;5026512;28;20544;-41
2022/04/05 01:12:50;;;;;;;6.30;5.47;;;7.20;81.20;;;;;;5027309;28;20969;-41
2022/04/05 01:15:17;;;;;;;7.47;5.33;;;7.20;80.80;;;;;;5005869;28;20831;-42
2022/04/05 01:17:44;;;;;;;6.43;5.83;;;7.20;80.90;;;;;;5027067;28;20474;-42
2022/04/05 01:20:11;;;;;;;6.40;5.30;;;7.20;80.90;;;;;;5008801;28;20558;-42
2022/04/05 01:22:48;;;;;;;5.30;4.37;;;7.20;80.80;;;;;;5025372;28;20472;-41
2022/04/05 01:25:17;;;;;;;6.37;5.70;;;7.20;80.70;;;;;;5026803;28;20450;-41
2022/04/05 01:27:44;;;;;;;6.13;5.43;;;7.20;80.90;;;;;;5027678;28;20456;-42
2022/04/05 01:30:12;;;;;;;6.40;5.40;;;7.20;81.00;;;;;;5022853;28;20463;-41
2022/04/05 01:32:39;;;;;;;5.77;5.27;;;7.20;80.80;;;;;;5026239;28;20986;-41
2022/04/05 01:35:06;;;;;;;5.40;4.90;;;7.20;81.10;;;;;;5026870;28;20471;-41
2022/04/05 01:37:33;;;;;;;5.33;4.83;;;7.20;81.20;;;;;;5009972;28;20500;-41
2022/04/05 01:40:01;;;;;;;5.30;4.80;;;7.20;81.30;;;;;;5025924;28;20535;-42
2022/04/05 01:42:28;;;;;;;8.30;6.80;;;7.20;81.30;;;;;;5026567;28;20453;-41
2022/04/05 01:44:55;;;;;;;5.93;5.00;;;7.20;81.30;;;;;;5025876;28;20555;-41
2022/04/05 01:47:21;;;;;;;5.30;4.80;;;7.20;81.20;;;;;;5004051;28;20451;-41
2022/04/05 01:49:51;;;;;;;5.23;4.73;;;7.20;81.30;;;;;;5004991;28;20547;-41
2022/04/05 01:52:18;;;;;;;6.30;5.10;;;7.20;81.50;;;;;;5027110;28;20817;-41
2022/04/05 01:54:45;;;;;;;6.30;4.90;;;7.20;81.40;;;;;;5010441;28;20943;-41
2022/04/05 01:57:13;;;;;;;6.57;4.60;;;7.20;81.40;;;;;;5025563;28;20457;-41
2022/04/05 01:59:41;;;;;;;6.87;5.33;;;7.20;81.30;;;;;;5007554;28;20765;-41
2022/04/05 02:02:09;;;;;;;5.60;4.43;;;7.20;81.50;;;;;;5024058;28;20580;-41
2022/04/05 02:04:37;;;;;;;5.70;4.53;;;7.20;81.40;;;;;;5025392;28;20459;-41
2022/04/05 02:07:11;;;;;;;5.47;4.50;;;7.20;81.50;;;;;;5012150;28;20531;-41
2022/04/05 02:09:39;;;;;;;5.20;4.70;;;7.20;81.40;;;;;;5007363;28;20455;-41
2022/04/05 02:12:06;;;;;;;4.97;4.47;;;7.20;81.30;;;;;;5025830;28;20817;-41
2022/04/05 02:14:33;;;;;;;5.20;4.40;;;7.20;81.30;;;;;;5030620;28;20461;-41
2022/04/05 02:17:00;;;;;;;5.53;4.57;;;7.30;81.40;;;;;;5030030;28;20467;-41
2022/04/05 02:19:27;;;;;;;6.10;4.37;;;7.30;81.40;;;;;;5026407;28;20490;-41
2022/04/05 02:21:54;;;;;;;4.83;4.43;;;7.30;81.40;;;;;;5029038;28;20483;-41
2022/04/05 02:24:21;;;;;;;5.07;4.57;;;7.20;81.40;;;;;;5031136;28;20942;-42
2022/04/05 02:26:49;;;;;;;5.57;5.07;;;7.30;81.30;;;;;;5027092;28;20543;-42
2022/04/05 02:29:16;;;;;;;5.87;5.27;;;7.30;81.50;;;;;;5027065;28;20460;-42
2022/04/05 02:31:43;;;;;;;5.13;4.60;;;7.30;81.30;;;;;;5029358;28;20510;-42
2022/04/05 02:34:09;;;;;;;4.50;4.10;;;7.30;81.20;;;;;;5027829;28;20472;-42
2022/04/05 02:36:38;;;;;;;4.43;3.90;;;7.30;81.20;;;;;;5013100;28;20468;-42
2022/04/05 02:39:06;;;;;;;4.13;3.73;;;7.30;81.00;;;;;;5028314;28;20463;-42
2022/04/05 02:41:33;;;;;;;6.53;4.63;;;7.30;81.00;;;;;;5022628;28;20518;-46
2022/04/05 02:43:59;;;;;;;5.03;4.53;;;7.30;81.30;;;;;;5044306;28;20460;-47
2022/04/05 02:46:27;;;;;;;4.20;3.90;;;7.30;81.20;;;;;;5044752;28;20538;-46
2022/04/05 02:48:54;;;;;;;4.13;3.83;;;7.40;80.90;;;;;;5041808;28;20531;-46
2022/04/05 02:51:23;;;;;;;4.27;3.87;;;7.40;81.10;;;;;;5025256;28;20476;-46
2022/04/05 02:53:50;;;;;;;4.43;4.03;;;7.40;81.00;;;;;;5040220;28;20853;-46
2022/04/05 02:56:16;;;;;;;4.50;4.10;;;7.40;81.00;;;;;;5045047;28;20461;-46
2022/04/05 02:58:43;;;;;;;3.80;3.50;;;7.40;81.20;;;;;;5041541;28;20514;-47
2022/04/05 03:01:10;;;;;;;3.97;3.67;;;7.40;81.30;;;;;;5040146;28;21068;-46
2022/04/05 03:03:37;;;;;;;3.90;3.60;;;7.40;81.30;;;;;;5039847;28;20830;-46
2022/04/05 03:06:04;;;;;;;4.23;3.83;;;7.40;81.30;;;;;;5040700;28;20535;-46
2022/04/05 03:08:30;;;;;;;3.53;3.23;;;7.40;81.10;;;;;;5026820;28;20464;-46
2022/04/05 03:10:57;;;;;;;3.80;3.50;;;7.40;81.10;;;;;;5041511;28;20467;-46
2022/04/05 03:13:24;;;;;;;3.90;3.60;;;7.40;81.20;;;;;;5041548;28;20561;-46
2022/04/05 03:15:51;;;;;;;3.80;3.50;;;7.40;81.30;;;;;;5041619;28;20464;-46
2022/04/05 03:18:18;;;;;;;4.10;3.70;;;7.40;81.60;;;;;;5041639;28;20848;-45
2022/04/05 03:20:45;;;;;;;3.80;3.50;;;7.40;81.50;;;;;;5040071;28;20529;-46
2022/04/05 03:23:12;;;;;;;4.50;3.90;;;7.40;81.40;;;;;;5042646;28;20447;-46
2022/04/05 03:25:38;;;;;;;3.83;3.53;;;7.40;81.40;;;;;;5041669;28;20475;-46
2022/04/05 03:28:05;;;;;;;4.20;3.87;;;7.50;81.20;;;;;;5040591;28;20468;-46
2022/04/05 03:30:32;;;;;;;4.10;3.40;;;7.50;81.40;;;;;;5037308;28;20459;-45
2022/04/05 03:32:59;;;;;;;3.80;3.47;;;7.50;81.30;;;;;;5019945;28;20465;-46
2022/04/05 03:35:25;;;;;;;3.77;3.37;;;7.50;81.40;;;;;;5035932;28;20550;-46
2022/04/05 03:37:52;;;;;;;3.70;3.40;;;7.50;81.50;;;;;;5021551;28;20471;-45
2022/04/05 03:40:19;;;;;;;3.87;3.57;;;7.50;81.30;;;;;;5022420;28;20471;-45
2022/04/05 03:42:46;;;;;;;3.87;3.57;;;7.50;81.20;;;;;;5024560;28;20484;-46
2022/04/05 03:45:13;;;;;;;3.57;3.27;;;7.50;81.40;;;;;;5039140;28;20885;-46
2022/04/05 03:47:39;;;;;;;3.50;3.20;;;7.50;81.50;;;;;;5043903;28;20470;-45
2022/04/05 03:50:06;;;;;;;4.73;4.20;;;7.50;81.50;;;;;;5024137;28;20466;-46
2022/04/05 03:52:33;;;;;;;5.07;3.70;;;7.50;81.50;;;;;;5041270;28;20745;-45
2022/04/05 03:55:00;;;;;;;3.97;3.57;;;7.50;81.60;;;;;;5040119;28;20452;-46
2022/04/05 03:57:26;;;;;;;3.83;3.50;;;7.50;81.30;;;;;;5041374;28;20518;-46
2022/04/05 03:59:53;;;;;;;4.03;3.63;;;7.50;81.40;;;;;;5041843;28;20547;-46
2022/04/05 04:02:20;;;;;;;3.50;3.20;;;7.50;81.60;;;;;;5038454;28;20514;-46
2022/04/05 04:04:50;;;;;;;3.93;3.53;;;7.50;81.50;;;;;;5041809;28;20448;-46
2022/04/05 04:07:16;;;;;;;3.83;3.53;;;7.50;81.40;;;;;;5037716;28;20471;-46
2022/04/05 04:09:44;;;;;;;3.03;2.80;;;7.50;81.40;;;;;;5040099;28;20626;-46
2022/04/05 04:12:10;;;;;;;3.57;3.33;;;7.50;81.40;;;;;;5039249;28;20471;-46
2022/04/05 04:14:37;;;;;;;3.73;3.43;;;7.50;81.40;;;;;;5040447;28;20488;-45
2022/04/05 04:17:04;;;;;;;4.63;3.97;;;7.50;81.30;;;;;;5037622;28;20456;-46
2022/04/05 04:19:31;;;;;;;3.97;3.67;;;7.50;81.40;;;;;;5024753;28;20996;-46
2022/04/05 04:21:57;;;;;;;4.20;3.80;;;7.60;81.30;;;;;;5022265;28;20480;-46
2022/04/05 04:24:24;;;;;;;5.40;3.53;;;7.60;81.30;;;;;;5039673;28;20459;-46
2022/04/05 04:26:51;;;;;;;3.40;3.10;;;7.60;81.30;;;;;;5039949;28;20931;-46
2022/04/05 04:29:18;;;;;;;3.97;3.67;;;7.60;81.50;;;;;;5040931;28;20458;-46
2022/04/05 04:31:44;;;;;;;5.40;4.07;;;7.60;81.40;;;;;;5020985;28;20484;-46
2022/04/05 04:34:12;;;;;;;4.00;3.60;;;7.60;81.40;;;;;;5024592;28;20558;-46
2022/04/05 04:36:39;;;;;;;3.93;3.63;;;7.60;81.50;;;;;;5038409;28;20472;-46
2022/04/05 04:39:08;;;;;;;3.87;3.47;;;7.60;81.50;;;;;;5023234;28;20467;-46
2022/04/05 04:41:34;;;;;;;4.37;3.97;;;7.60;81.40;;;;;;5040283;28;20495;-46
2022/04/05 04:44:01;;;;;;;5.80;3.90;;;7.60;81.40;;;;;;5039440;28;20562;-46
2022/04/05 04:46:28;;;;;;;4.10;3.63;;;7.60;81.70;;;;;;5039889;28;20492;-46
2022/04/05 04:48:54;;;;;;;3.83;3.53;;;7.60;81.80;;;;;;5023302;28;20495;-46
2022/04/05 04:51:21;;;;;;;4.90;4.50;;;7.60;81.80;;;;;;5022282;28;20486;-46
2022/04/05 04:53:48;;;;;;;4.40;4.00;;;7.60;81.90;;;;;;5040698;28;20463;-47
2022/04/05 04:56:15;;;;;;;4.40;3.87;;;7.60;81.80;;;;;;5037546;28;20463;-47
2022/04/05 04:58:42;;;;;;;5.67;4.20;;;7.60;82.10;;;;;;5023443;28;20462;-47
2022/04/05 05:01:08;;;;;;;5.20;4.20;;;7.60;82.30;;;;;;5039486;28;20493;-46
2022/04/05 05:03:35;;;;;;;4.60;4.20;;;7.60;82.30;;;;;;5039823;28;20470;-46
2022/04/05 05:06:04;;;;;;;3.37;3.07;;;7.60;82.40;;;;;;5039867;28;20456;-45
2022/04/05 05:08:32;;;;;;;4.83;4.40;;;7.60;82.60;;;;;;5039917;28;21281;-46
2022/04/05 05:10:58;;;;;;;5.80;4.00;;;7.60;82.90;;;;;;5039085;28;20496;-46
2022/04/05 05:13:25;;;;;;;4.90;4.50;;;7.60;83.40;;;;;;5038081;28;20467;-46
2022/04/05 05:15:52;;;;;;;4.53;4.13;;;7.60;83.60;;;;;;5038961;28;20463;-46
2022/04/05 05:18:19;;;;;;;5.83;4.40;;;7.60;83.70;;;;;;5039490;28;20527;-45
2022/04/05 05:20:46;;;;;;;4.00;3.63;;;7.70;83.90;;;;;;5039038;28;20464;-46
2022/04/05 05:23:13;;;;;;;5.20;4.80;;;7.60;84.20;;;;;;5039628;28;20507;-45
2022/04/05 05:25:39;;;;;;;4.73;4.23;;;7.60;84.40;;;;;;5041961;28;20815;-45
2022/04/05 05:28:06;;;;;;;5.10;4.20;;;7.60;84.70;;;;;;5037620;28;20447;-46
2022/04/05 05:30:33;;;;;;;4.57;4.17;;;7.60;84.60;;;;;;5022254;28;20500;-46
2022/04/05 05:33:01;;;;;;;6.33;4.60;;;7.60;84.90;;;;;;5042167;28;20520;-47
2022/04/05 05:35:27;;;;;;;4.80;4.30;;;7.60;85.10;;;;;;5041480;28;20556;-47
2022/04/05 05:37:56;;;;;;;5.40;4.50;;;7.60;85.20;;;;;;5029592;28;20479;-47
2022/04/05 05:40:23;;;;;;;5.30;4.80;;;7.60;85.20;;;;;;5041657;28;20821;-47
2022/04/05 05:42:58;;;;;;;4.77;4.27;;;7.50;85.40;;;;;;5042284;28;20483;-47
2022/04/05 05:45:26;;;;;;;4.67;4.20;;;7.50;85.80;;;;;;5022489;28;20459;-47
2022/04/05 05:47:53;;;;;;;4.60;4.20;;;7.50;85.80;;;;;;5043895;28;20538;-46
2022/04/05 05:50:21;;;;;;;4.90;4.33;;;7.50;85.80;;;;;;5045776;28;20484;-47
2022/04/05 05:52:48;;;;;;;4.47;4.07;;;7.50;85.80;;;;;;5028199;28;20487;-47
2022/04/05 05:55:17;;;;;;;6.40;4.57;;;7.50;86.00;;;;;;5043753;28;20473;-47
2022/04/05 05:57:44;;;;;;;5.10;4.60;;;7.50;86.30;;;;;;5048015;28;20763;-46
2022/04/05 06:00:17;;;;;;;5.10;4.60;;;7.50;85.90;;;;;;5045107;28;20471;-46
2022/04/05 06:02:45;;;;;;;4.30;3.90;;;7.50;86.00;;;;;;5045385;28;20469;-46
2022/04/05 06:05:12;;;;;;;4.43;4.03;;;7.50;86.30;;;;;;5043406;28;20457;-46
2022/04/05 06:07:42;;;;;;;5.00;4.60;;;7.50;86.40;;;;;;5013545;28;20452;-45
2022/04/05 06:10:10;;;;;;;6.57;5.30;;;7.60;86.20;;;;;;5044892;28;21015;-46
2022/04/05 06:12:39;;;;;;;4.87;4.37;;;7.60;86.40;;;;;;5036030;28;20507;-46
2022/04/05 06:15:08;;;;;;;5.00;4.50;;;7.60;86.40;;;;;;5043680;28;20511;-46
2022/04/05 06:17:54;;;;;;;4.80;4.40;;;7.60;86.80;;;;;;5021597;28;20463;-46
2022/04/05 06:20:22;;;;;;;6.43;4.73;;;7.60;86.50;;;;;;5044558;28;20451;-46
2022/04/05 06:22:50;;;;;;;4.77;4.33;;;7.60;86.90;;;;;;5028708;28;20495;-46
2022/04/05 06:25:19;;;;;;;4.53;4.13;;;7.60;87.20;;;;;;5026527;28;20459;-46
2022/04/05 06:27:46;;;;;;;4.80;4.30;;;7.60;86.80;;;;;;5041227;28;20474;-46
2022/04/05 06:30:14;;;;;;;7.50;6.80;;;7.60;86.90;;;;;;5039867;28;20456;-46
2022/04/05 06:32:41;;;;;;;5.20;4.70;;;7.60;87.10;;;;;;5041832;28;20487;-46
2022/04/05 06:35:10;;;;;;;5.97;4.80;;;7.60;86.90;;;;;;5023818;28;20545;-46
2022/04/05 06:37:38;;;;;;;5.10;4.60;;;7.60;87.40;;;;;;5040084;28;20460;-46
2022/04/05 06:40:06;;;;;;;7.90;4.10;;;7.60;87.40;;;;;;5036160;28;20468;-47
2022/04/05 06:42:34;;;;;;;4.87;4.20;;;7.60;87.60;;;;;;5033205;28;20495;-41
2022/04/05 06:45:01;;;;;;;5.00;4.60;;;7.70;87.70;;;;;;4996829;28;20459;-41
2022/04/05 06:47:28;;;;;;;4.90;4.50;;;7.70;87.80;;;;;;5029623;28;20899;-41
2022/04/05 06:49:54;;;;;;;5.90;4.80;;;7.70;88.20;;;;;;5030611;28;20447;-41
2022/04/05 06:52:21;;;;;;;5.53;4.90;;;7.70;87.90;;;;;;5011451;28;20460;-41
2022/04/05 06:54:48;;;;;;;5.90;4.83;;;7.70;87.60;;;;;;5028947;28;20460;-42
2022/04/05 06:57:15;;;;;;;5.47;4.93;;;7.60;88.20;;;;;;5030477;28;20440;-42
2022/04/05 06:59:46;;;;;;;4.93;4.43;;;7.70;88.00;;;;;;5028605;28;20447;-41
2022/04/05 07:02:14;;;;;;;5.40;4.70;;;7.70;88.30;;;;;;5029563;28;20495;-40
2022/04/05 07:04:41;;;;;;;6.77;4.33;;;7.70;88.00;;;;;;5006652;28;20551;-41
2022/04/05 07:07:08;;;;;;;4.97;4.57;;;7.70;88.50;;;;;;5008908;28;20452;-41
2022/04/05 07:09:34;;;;;;;6.70;4.93;;;7.70;88.30;;;;;;5026507;28;20959;-41
2022/04/05 07:12:02;;;;;;;6.17;4.90;;;7.80;88.20;;;;;;5005583;28;20527;-41
2022/04/05 07:14:29;;;;;;;5.97;4.93;;;7.80;87.80;;;;;;5029130;28;20487;-41
2022/04/05 07:16:56;;;;;;;5.13;4.50;;;7.80;88.00;;;;;;5026840;28;20461;-41
2022/04/05 07:19:22;;;;;;;6.13;4.80;;;7.80;87.90;;;;;;5026270;28;20462;-41
2022/04/05 07:21:49;;;;;;;4.43;4.03;;;7.80;87.80;;;;;;5028268;28;20495;-41
2022/04/05 07:24:17;;;;;;;4.13;3.73;;;7.80;88.30;;;;;;5009850;28;20465;-41
2022/04/05 07:26:44;;;;;;;4.67;4.30;;;7.80;88.10;;;;;;4994694;28;20464;-41
2022/04/05 07:29:12;;;;;;;5.10;4.03;;;7.90;88.40;;;;;;5028704;28;20487;-41
2022/04/05 07:31:39;;;;;;;4.23;3.70;;;7.90;88.00;;;;;;5026691;28;20484;-41
2022/04/05 07:34:06;;;;;;;4.43;4.07;;;8.00;87.80;;;;;;5029232;28;20460;-41
2022/04/05 07:36:33;;;;;;;3.57;3.30;;;8.00;87.70;;;;;;5028383;28;20468;-42
2022/04/05 07:38:59;;;;;;;4.23;3.83;;;8.10;88.00;;;;;;5028584;28;20468;-42
2022/04/05 07:41:26;;;;;;;3.97;3.30;;;8.10;87.80;;;;;;5012218;28;20444;-42
2022/04/05 07:43:53;;;;;;;4.03;3.67;;;8.20;87.00;;;;;;5014923;28;20459;-42
2022/04/05 07:46:20;;;;;;;3.60;3.30;;;8.20;86.80;;;;;;5028113;28;20459;-42
2022/04/05 07:48:47;;;;;;;3.67;3.37;;;8.20;86.70;;;;;;5029255;28;20848;-42
2022/04/05 07:51:15;;;;;;;3.80;3.50;;;8.20;86.30;;;;;;5028819;28;20517;-42
2022/04/05 07:53:42;;;;;;;3.37;3.07;;;8.30;86.90;;;;;;5026902;28;20910;-41
2022/04/05 07:56:12;;;;;;;3.80;3.50;;;8.30;87.00;;;;;;5028437;28;20467;-42
2022/04/05 07:58:40;;;;;;;3.07;2.87;;;8.30;86.30;;;;;;5027372;28;20479;-41
2022/04/05 08:01:09;;;;;;;3.43;2.97;;;8.40;86.20;;;;;;5027763;28;20460;-41
2022/04/05 08:03:37;;;;;;;3.70;3.40;;;8.40;85.90;;;;;;5025639;28;21051;-41
2022/04/05 08:06:04;;;;;;;3.30;3.00;;;8.40;85.80;;;;;;5025251;28;20459;-41
2022/04/05 08:08:31;;;;;;;3.53;3.23;;;8.50;85.80;;;;;;5027434;28;20452;-42
2022/04/05 08:11:17;;;;;;;2.90;2.70;;;8.60;85.60;;;;;;5013047;28;20451;-42
2022/04/05 08:13:44;;;;;;;3.47;3.17;;;8.60;85.20;;;;;;5025523;28;20464;-42
2022/04/05 08:16:11;;;;;;;3.30;2.90;;;8.70;84.60;;;;;;5028679;28;20452;-42
2022/04/05 08:18:38;;;;;;;5.13;4.43;;;8.70;84.00;;;;;;5026758;28;21010;-42
2022/04/05 08:21:05;;;;;;;3.63;3.33;;;8.70;84.00;;;;;;5025661;28;20559;-42
2022/04/05 08:23:32;;;;;;;2.70;2.47;;;8.70;84.20;;;;;;5025624;28;21044;-42
2022/04/05 08:25:59;;;;;;;3.30;3.10;;;8.80;83.80;;;;;;5026628;28;20459;-41
2022/04/05 08:28:26;;;;;;;3.40;3.10;;;8.80;83.70;;;;;;5027041;28;20455;-41
2022/04/05 08:30:53;;;;;;;3.80;3.40;;;8.80;83.80;;;;;;5027550;28;20907;-41
2022/04/05 08:33:19;;;;;;;3.83;3.40;;;8.80;83.80;;;;;;5007910;28;21283;-42
2022/04/05 08:35:47;;;;;;;3.47;3.13;;;8.80;83.60;;;;;;5025839;28;20584;-42
2022/04/05 08:38:14;;;;;;;4.10;3.67;;;8.80;83.90;;;;;;5026429;28;21101;-42
2022/04/05 08:40:42;;;;;;;4.17;3.67;;;8.90;83.10;;;;;;5026335;28;20510;-42
2022/04/05 08:43:09;;;;;;;2.87;2.60;;;8.90;83.90;;;;;;5027588;28;20491;-41
2022/04/05 08:45:37;;;;;;;3.47;3.17;;;8.90;83.60;;;;;;5027685;28;20506;-41
2022/04/05 08:48:09;;;;;;;3.30;3.10;;;9.00;83.50;;;;;;5006937;28;20518;-42
2022/04/05 08:50:36;;;;;;;3.60;3.30;;;9.10;83.50;;;;;;5026457;28;20555;-42
2022/04/05 08:53:03;;;;;;;3.10;2.80;;;9.10;83.00;;;;;;5023944;28;20484;-42
2022/04/05 08:55:44;;;;;;;3.90;3.60;;;9.10;83.20;;;;;;5023832;28;20897;-42
2022/04/05 08:58:13;;;;;;;2.93;2.63;;;9.20;83.10;;;;;;5023585;28;20821;-42
2022/04/05 09:00:41;;;;;;;3.30;3.00;;;9.30;82.30;;;;;;5026038;28;20496;-42
2022/04/05 09:03:08;;;;;;;4.27;3.50;;;9.30;82.80;;;;;;5021045;28;20488;-42
2022/04/05 09:05:36;;;;;;;3.93;2.53;;;9.40;83.30;;;;;;5023916;28;20979;-42
2022/04/05 09:08:29;;;;;;;3.80;3.43;;;9.40;82.40;;;;;;5025263;28;20557;-42
2022/04/05 09:11:10;;;;;;;2.70;2.50;;;9.50;81.90;;;;;;5027367;28;20451;-42
2022/04/05 09:13:37;;;;;;;2.40;2.20;;;9.60;81.40;;;;;;5024832;28;21007;-41
2022/04/05 09:16:05;;;;;;;2.67;2.47;;;9.70;81.20;;;;;;5026666;28;20467;-41
2022/04/05 09:18:45;;;;;;;3.23;3.03;;;9.70;81.40;;;;;;5026886;28;20531;-42
2022/04/05 09:21:15;;;;;;;2.70;2.37;;;9.80;80.60;;;;;;5027339;28;20972;-41
2022/04/05 09:23:43;;;;;;;2.13;1.83;;;9.80;80.60;;;;;;5023577;28;21015;-41
2022/04/05 09:26:12;;;;;;;2.83;2.53;;;9.90;81.00;;;;;;5007053;28;20448;-42
2022/04/05 09:28:44;;;;;;;2.47;2.27;;;10.00;80.80;;;;;;5027027;28;20568;-41
2022/04/05 09:31:13;;;;;;;3.00;2.63;;;10.20;79.90;;;;;;5007743;28;20587;-42
2022/04/05 09:34:00;;;;;;;4.07;3.00;;;10.30;79.90;;;;;;5026379;28;20484;-42
2022/04/05 09:36:41;;;;;;;2.40;2.20;;;10.40;78.70;;;;;;5013627;28;20505;-43
2022/04/05 09:39:21;;;;;;;3.23;2.90;;;10.60;77.70;;;;;;5028268;28;20834;-42
2022/04/05 09:42:03;;;;;;;2.60;2.40;;;10.70;78.40;;;;;;5027747;28;20538;-42
2022/04/05 09:44:32;;;;;;;2.60;2.40;;;11.00;78.10;;;;;;5027889;28;20449;-42
2022/04/05 09:47:06;;;;;;;1.97;1.80;;;11.20;77.50;;;;;;5025347;28;20890;-44
2022/04/05 09:49:39;;;;;;;2.33;2.10;;;11.40;75.70;;;;;;5027579;28;20987;-43
2022/04/05 09:52:21;;;;;;;2.47;2.27;;;11.60;75.40;;;;;;5027859;28;20451;-43
2022/04/05 09:54:48;;;;;;;1.80;1.70;;;11.80;74.70;;;;;;5026415;28;20460;-42
2022/04/05 09:57:31;;;;;;;2.77;2.27;;;12.00;73.20;;;;;;5010336;28;20440;-42
2022/04/05 10:00:15;;;;;;;2.30;2.10;;;12.20;73.20;;;;;;5026466;28;20457;-42
2022/04/05 10:03:02;;;;;;;1.93;1.83;;;12.50;72.90;;;;;;5027261;28;20491;-42
2022/04/05 10:05:36;;;;;;;1.90;1.80;;;12.80;71.10;;;;;;5027340;28;20455;-42
2022/04/05 10:08:04;;;;;;;2.33;2.13;;;12.90;70.90;;;;;;5009118;28;20547;-42
2022/04/05 10:10:31;;;;;;;1.57;1.47;;;13.00;70.90;;;;;;5028172;28;20875;-42
2022/04/05 10:12:57;;;;;;;2.17;1.70;;;13.10;70.30;;;;;;5027571;28;20453;-42
2022/04/05 10:15:27;;;;;;;2.00;1.90;;;13.30;70.70;;;;;;5027913;28;20453;-42
2022/04/05 10:17:56;;;;;;;2.37;2.17;;;13.50;69.40;;;;;;5005611;28;20472;-42
2022/04/05 10:20:25;;;;;;;1.67;1.57;;;13.90;68.80;;;;;;5009419;28;20485;-44
2022/04/05 10:22:56;;;;;;;2.07;1.87;;;14.20;68.20;;;;;;5026645;28;20485;-42
2022/04/05 10:25:24;;;;;;;1.83;1.63;;;14.30;66.90;;;;;;5027606;28;20467;-42
2022/04/05 10:27:51;;;;;;;3.43;1.80;;;14.40;66.30;;;;;;5010998;28;20849;-42
2022/04/05 10:30:38;;;;;;;2.23;2.03;;;14.50;66.40;;;;;;5003088;28;21743;-43
2022/04/05 10:33:17;;;;;;;1.67;1.57;;;14.40;65.90;;;;;;5025751;28;20456;-43
2022/04/05 10:35:54;;;;;;;1.90;1.80;;;14.70;65.70;;;;;;5025800;28;20547;-43
2022/04/05 10:38:21;;;;;;;3.67;2.73;;;15.10;65.70;;;;;;5025876;28;20483;-43
2022/04/05 10:41:17;;;;;;;2.10;1.97;;;15.30;64.40;;;;;;5012183;28;20864;-43
2022/04/05 10:43:45;;;;;;;2.33;2.13;;;15.30;64.10;;;;;;5029593;28;20491;-43
2022/04/05 10:46:12;;;;;;;2.40;2.13;;;15.10;64.30;;;;;;5029307;28;20472;-43
2022/04/05 10:48:56;;;;;;;2.03;1.93;;;14.90;65.80;;;;;;5027940;28;20842;-43
2022/04/05 10:51:32;;;;;;;2.10;2.00;;;14.80;66.40;;;;;;5029763;28;20454;-43
2022/04/05 10:54:19;;;;;;;1.97;1.87;;;14.60;65.40;;;;;;5029909;28;21056;-43
2022/04/05 10:57:26;;;;;;;4.50;2.30;;;14.40;66.90;;;;;;5027060;28;20461;-42
2022/04/05 11:00:17;;;;;;;2.80;2.23;;;14.10;67.10;;;;;;5010409;28;20842;-42
2022/04/05 11:02:47;;;;;;;2.23;2.03;;;14.00;68.70;;;;;;5022583;28;20516;-43
2022/04/05 11:05:14;;;;;;;2.50;2.30;;;14.00;69.00;;;;;;5031530;28;20461;-43
2022/04/05 11:07:59;;;;;;;2.57;2.27;;;14.00;68.40;;;;;;5026905;28;20473;-43
2022/04/05 11:10:27;;;;;;;2.50;2.30;;;13.80;68.90;;;;;;5029416;28;20467;-42
2022/04/05 11:13:12;;;;;;;2.73;2.53;;;13.60;68.90;;;;;;5028441;28;20990;-42
2022/04/05 11:15:46;;;;;;;3.27;3.00;;;13.40;69.90;;;;;;5026887;28;20610;-42
2022/04/05 11:18:18;;;;;;;2.33;2.10;;;13.30;70.20;;;;;;5027900;28;20477;-42
2022/04/05 11:20:46;;;;;;;3.57;3.10;;;13.10;71.10;;;;;;5029695;28;20461;-42
2022/04/05 11:23:15;;;;;;;2.87;2.67;;;13.00;71.60;;;;;;5007792;28;20506;-42
2022/04/05 11:25:44;;;;;;;3.30;2.70;;;12.90;72.30;;;;;;5030125;28;20599;-42
2022/04/05 11:28:17;;;;;;;4.63;2.60;;;12.90;72.30;;;;;;5030893;28;20484;-42
2022/04/05 11:31:04;;;;;;;3.23;2.40;;;12.90;72.00;;;;;;5026274;28;20712;-42
2022/04/05 11:33:31;;;;;;;3.30;3.00;;;12.90;72.60;;;;;;5027514;28;20519;-42
2022/04/05 11:36:04;;;;;;;2.53;2.33;;;12.90;72.10;;;;;;5028214;28;20547;-42
2022/04/05 11:38:36;;;;;;;3.20;2.90;;;13.00;71.60;;;;;;5028356;28;20828;-42
2022/04/05 11:41:20;;;;;;;3.20;3.00;;;13.00;72.20;;;;;;5007954;28;20453;-42
2022/04/05 11:43:50;;;;;;;3.43;2.97;;;13.00;72.40;;;;;;5028680;28;20500;-42
2022/04/05 11:46:20;;;;;;;3.00;2.67;;;12.90;72.30;;;;;;5029195;28;20460;-42
2022/04/05 11:48:53;;;;;;;3.40;3.07;;;12.90;72.50;;;;;;5029072;28;20450;-42
2022/04/05 11:51:22;;;;;;;2.90;2.70;;;12.80;72.50;;;;;;5010953;28;20473;-42
2022/04/05 11:54:13;;;;;;;3.77;3.33;;;12.80;72.50;;;;;;5024308;28;20473;-42
2022/04/05 11:56:41;;;;;;;3.73;3.40;;;12.70;72.70;;;;;;4994573;28;20465;-42
2022/04/05 11:59:10;;;;;;;4.00;3.60;;;12.70;72.90;;;;;;5027655;28;20465;-42
2022/04/05 12:01:39;;;;;;;3.40;3.10;;;12.60;73.40;;;;;;5010496;28;20844;-42
2022/04/05 12:04:07;;;;;;;3.73;3.43;;;12.60;73.40;;;;;;5029177;28;20489;-42
2022/04/05 12:06:39;;;;;;;3.83;3.43;;;12.60;73.50;;;;;;5029244;28;21018;-42
2022/04/05 12:09:09;;;;;;;3.50;3.20;;;12.50;73.50;;;;;;5028030;28;21032;-42
2022/04/05 12:11:39;;;;;;;3.90;3.50;;;12.50;74.20;;;;;;4993918;28;20916;-42
2022/04/05 12:14:11;;;;;;;4.23;3.47;;;12.40;74.10;;;;;;5004738;28;20468;-42
2022/04/05 12:16:58;;;;;;;3.37;3.13;;;12.40;73.70;;;;;;5024557;28;21017;-42
2022/04/05 12:19:36;;;;;;;4.57;3.87;;;12.40;73.70;;;;;;5022592;28;20892;-42
2022/04/05 12:22:10;;;;;;;3.80;3.40;;;12.40;74.20;;;;;;5006363;28;20456;-42
2022/04/05 12:24:43;;;;;;;4.33;3.93;;;12.40;74.40;;;;;;5021313;28;21035;-42
2022/04/05 12:27:10;;;;;;;4.03;3.63;;;12.40;74.50;;;;;;5023408;28;20461;-42
2022/04/05 12:29:41;;;;;;;3.70;3.40;;;12.50;74.40;;;;;;5024154;28;20462;-42
2022/04/05 12:32:11;;;;;;;3.40;3.10;;;12.50;74.40;;;;;;5006611;28;20487;-42
2022/04/05 12:34:39;;;;;;;5.73;5.13;;;12.50;74.00;;;;;;5025554;28;20473;-42
2022/04/05 12:37:08;;;;;;;7.03;4.80;;;12.50;74.10;;;;;;5024732;28;20832;-43
2022/04/05 12:39:45;;;;;;;3.60;3.30;;;12.50;74.00;;;;;;5009002;28;20471;-42
2022/04/05 12:42:12;;;;;;;3.40;3.10;;;12.60;74.10;;;;;;5025866;28;20471;-42
2022/04/05 12:44:42;;;;;;;3.10;2.80;;;12.70;74.10;;;;;;5025401;28;20503;-42
2022/04/05 12:47:23;;;;;;;3.80;3.50;;;12.80;73.60;;;;;;5026415;28;20840;-42
2022/04/05 12:49:53;;;;;;;4.30;3.90;;;12.90;73.00;;;;;;5006765;28;20464;-42
2022/04/05 12:52:21;;;;;;;3.70;3.40;;;13.00;73.30;;;;;;5025810;28;20457;-42
2022/04/05 12:55:23;;;;;;;3.70;3.40;;;13.10;73.00;;;;;;5024143;28;20844;-42
2022/04/05 12:57:54;;;;;;;4.23;3.63;;;13.10;73.00;;;;;;4937855;28;20480;-42
2022/04/05 13:00:28;;;;;;;5.00;4.60;;;13.20;71.90;;;;;;5011120;28;20457;-42
2022/04/05 13:03:11;;;;;;;4.47;4.07;;;13.10;71.60;;;;;;5028823;28;20508;-42
2022/04/05 13:08:38;;;;;;;4.13;3.73;;;13.00;72.40;;;;;;5026346;28;20820;-43
2022/04/05 13:11:22;;;;;;;4.50;4.10;;;13.00;72.80;;;;;;5027344;28;20465;-42